sim
Sign-in with your pilot id or email,
or register
Callsign
Passwort

Schedule Details

Flight Number: OEO7999
Departure: Detroit Metropolitan Wayne County Airport (KDTW) at 22:45
Arrival: Munich Airport (EDDM) at 07:30

Weather Information
Getting current METAR information for KDTW 221553Z 28004KT 10SM SCT250 19/09 A3024 RMK AO2 SLP239 T01940089
Getting current METAR information for EDDM 221550Z VRB02KT 9999 FEW040CB 23/14 Q1010 NOSIG

Schedule Frequency

Route Map